Airfield :
LOGIN :

Register | Disclaimer

   EN    FR    IT 

 










Legend :    VFR   Marginal VFR   IFR   Intensive IFR   Very Intensive IFR
Visi :
Ceiling :
>= 8 km
>= 3000ft
5 to 8 km
1000 to 3000 ft
1500m to 5 km
500 to 1000 ft
800 to 1500m
200 to 500 ft
< 800m
< 200 ft
Symbols :   Thunderstorms  Fog  Heavy snow  Heavy precipitations  Wind > 20 kt
SIGMETs :     Misc.  Thunderstorms  Icing  Turbulence  Mountain Waves  Volcanic Ashes






- Airport Elevation : 233 ft
- IATA code : REU


LERS - Reus Tarragona

CURRENT METAR :
  • 281100Z VRB06KT 9999 FEW025 13/06 Q1015

EXPIRED METARs :
  • 281030Z 35008KT 290V030 9999 FEW025 13/07 Q1016
  • 281000Z 32009KT 270V020 9999 FEW025 14/06 Q1015
  • 280930Z 34012G25KT 310V010 9999 FEW025 SCT040 12/07 Q1015
  • 280900Z 02003KT 330V060 9999 FEW025 SCT050 12/07 Q1014
  • 280830Z VRB06G16KT 9999 FEW025 SCT040 12/07 Q1014
  • 280800Z VRB02KT 9999 FEW025 SCT042 12/06 Q1014

TAF AMD TAF LERS
Valid from the 28 at 09:00 until the 29 at 09:00 UTC


280901Z 2809/2909 VRB03KT 9999 FEW025 TX17/2812Z TN06/2905Z
TEMPO 2809/2811 4000 SHRA FEW020TCU
PROB40
TEMPO 2809/2812 3000 TSRA FEW020CB
BECMG 2812/2814 30020KT
TEMPO 2812/2820 32020G32KT



MET'MAP, your aeronautical weather chart ! - Copyright ORBIFLY December 2007 - Disclaimer

ORBIFLY MET'MAP TEAM :

Programming & Development : Alexandra Zaïnal
Original concept : Baudouin d'Aumeries
Technical & hardware support : Manuel Goepfert
Assistance : Marc-Olivier Méhu




SOURCES & CREDITS :

   NOAA